Time;durP1;ratioP1;P1;durP2;ratioP2;P2;SDS_P1;SDS_P2;PMS_P1;PMS_P2;Temp;Humidity;BMP_temperature;BMP_pressure;BME280_temperature;BME280_humidity;BME280_pressure;Samples;Min_cycle;Max_cycle;Signal;HPM_P1;HPM_P2
2021/05/11 00:01:50;;;;;;;6.00;3.20;;;;;;;17.95;71.66;100043.44;3575305;40;20060;-61
2021/05/11 00:04:17;;;;;;;4.80;3.33;;;;;;;17.94;71.78;100044.31;3575831;40;20040;-59
2021/05/11 00:06:43;;;;;;;6.65;3.00;;;;;;;17.64;73.24;100030.03;3575401;40;20057;-58
2021/05/11 00:09:11;;;;;;;4.63;3.20;;;;;;;17.49;73.66;100025.94;3575981;40;20053;-61
2021/05/11 00:11:39;;;;;;;3.20;2.90;;;;;;;17.88;72.71;100028.84;3576496;40;20156;-59
2021/05/11 00:14:09;;;;;;;4.32;2.88;;;;;;;17.75;73.63;100030.78;3569018;40;20057;-61
2021/05/11 00:16:37;;;;;;;3.10;2.90;;;;;;;17.54;74.11;100023.28;3575720;40;20049;-56
2021/05/11 00:19:10;;;;;;;4.38;3.17;;;;;;;17.56;74.16;100024.97;3576046;40;20410;-59
2021/05/11 00:21:37;;;;;;;7.47;4.00;;;;;;;17.31;75.45;100032.19;3575685;40;20049;-58
2021/05/11 00:24:04;;;;;;;5.63;3.58;;;;;;;17.35;75.58;100017.50;3574625;40;20048;-60
2021/05/11 00:26:33;;;;;;;5.82;2.92;;;;;;;17.42;75.16;100015.66;3576129;40;20056;-61
2021/05/11 00:29:00;;;;;;;6.20;3.20;;;;;;;17.27;75.22;100016.72;3574459;40;20064;-60
2021/05/11 00:31:27;;;;;;;4.97;3.33;;;;;;;17.59;74.17;100011.13;3575811;40;20044;-60
2021/05/11 00:33:55;;;;;;;3.53;3.22;;;;;;;17.47;74.30;100017.34;3568539;40;20029;-57
2021/05/11 00:36:22;;;;;;;3.17;2.97;;;;;;;17.18;75.03;100015.09;3575912;40;20049;-60
2021/05/11 00:38:49;;;;;;;4.70;3.13;;;;;;;17.30;74.24;100009.78;3575085;40;20129;-61
2021/05/11 00:41:16;;;;;;;4.43;2.95;;;;;;;17.33;74.74;100011.47;3575716;40;20433;-61
2021/05/11 00:43:43;;;;;;;2.70;2.50;;;;;;;17.12;75.29;100007.44;3575888;40;20055;-61
2021/05/11 00:46:12;;;;;;;4.85;2.67;;;;;;;17.23;75.18;100002.09;3575915;40;20053;-60
2021/05/11 00:48:39;;;;;;;6.55;3.08;;;;;;;17.02;75.56;100003.25;3575656;40;20582;-59
2021/05/11 00:51:07;;;;;;;4.35;3.08;;;;;;;16.94;76.39;100003.31;3575817;40;20104;-61
2021/05/11 00:53:35;;;;;;;3.75;2.80;;;;;;;16.96;75.75;100001.59;3576162;40;20349;-60
2021/05/11 00:56:02;;;;;;;6.53;2.90;;;;;;;17.07;75.55;100000.59;3574757;40;20621;-59
2021/05/11 00:58:29;;;;;;;3.60;2.72;;;;;;;16.74;76.94;99994.94;3575243;40;20415;-61
2021/05/11 01:00:55;;;;;;;4.53;2.70;;;;;;;17.15;75.09;99988.44;3575846;40;20040;-61
2021/05/11 01:03:22;;;;;;;3.95;2.70;;;;;;;16.90;76.21;99983.53;3576226;40;20331;-61
2021/05/11 01:05:48;;;;;;;3.67;3.17;;;;;;;16.95;76.14;99980.91;3575460;40;20109;-61
2021/05/11 01:08:16;;;;;;;3.63;2.80;;;;;;;16.94;76.13;99981.78;3575707;40;20303;-61
2021/05/11 01:10:42;;;;;;;3.75;2.78;;;;;;;16.85;76.49;99976.72;3575757;40;20049;-58
2021/05/11 01:13:09;;;;;;;6.22;3.60;;;;;;;16.95;75.81;99966.22;3575977;40;20056;-61
2021/05/11 01:15:38;;;;;;;5.68;3.00;;;;;;;16.98;76.17;99957.59;3575924;40;20056;-61
2021/05/11 01:18:12;;;;;;;2.90;2.70;;;;;;;16.89;76.35;99962.88;3576065;40;20061;-59
2021/05/11 01:20:45;;;;;;;3.92;3.45;;;;;;;16.62;77.64;99954.50;3575879;40;20139;-57
2021/05/11 01:25:57;;;;;;;4.88;3.22;;;;;;;16.81;76.31;99947.44;3574173;40;20037;-61
2021/05/11 01:28:31;;;;;;;3.83;2.83;;;;;;;16.79;76.59;99939.72;3574257;40;20095;-60
2021/05/11 02:17:46;;;;;;;7.03;3.35;;;;;;;16.32;79.32;99922.13;3574635;40;20095;-61
2021/05/11 02:24:56;;;;;;;6.15;4.05;;;;;;;16.25;79.92;99910.13;3562945;40;20064;-59
2021/05/11 02:27:22;;;;;;;3.85;3.53;;;;;;;16.41;79.52;99910.81;3563410;40;20076;-57
2021/05/11 02:29:49;;;;;;;6.22;3.63;;;;;;;16.26;79.38;99904.06;3562345;40;20442;-58
2021/05/11 02:32:17;;;;;;;6.35;3.92;;;;;;;15.98;81.54;99906.06;3563258;40;20046;-57
2021/05/11 02:34:43;;;;;;;5.43;3.83;;;;;;;16.08;80.75;99904.25;3562497;40;20074;-57
2021/05/11 02:37:10;;;;;;;5.30;3.92;;;;;;;16.11;80.82;99902.50;3563910;40;20089;-53
2021/05/11 02:39:39;;;;;;;3.78;3.42;;;;;;;16.13;80.19;99905.06;3562505;40;20323;-57
2021/05/11 02:42:06;;;;;;;6.53;4.10;;;;;;;15.87;82.38;99902.72;3564032;40;20053;-54
2021/05/11 02:44:40;;;;;;;4.80;4.22;;;;;;;15.55;83.56;99914.13;3562325;40;20109;-56
2021/05/11 02:47:07;;;;;;;6.10;4.20;;;;;;;15.36;84.86;99923.72;3563475;40;20041;-55
2021/05/11 02:49:38;;;;;;;6.60;4.38;;;;;;;15.41;85.61;99916.81;3562158;40;20382;-55
2021/05/11 02:52:05;;;;;;;5.55;4.43;;;;;;;15.48;85.10;99923.66;3559969;40;20072;-56
2021/05/11 02:54:32;;;;;;;5.38;4.30;;;;;;;15.26;85.71;99924.66;3562589;40;20058;-57
2021/05/11 02:56:58;;;;;;;11.55;4.75;;;;;;;15.03;87.77;99917.88;3562943;40;20434;-56
2021/05/11 02:59:25;;;;;;;8.38;4.32;;;;;;;15.12;87.20;99918.72;3563149;40;20088;-57
2021/05/11 03:01:52;;;;;;;6.20;4.35;;;;;;;15.43;86.12;99920.22;3562793;40;20066;-56
2021/05/11 03:04:19;;;;;;;7.97;4.82;;;;;;;15.42;85.39;99921.09;3561900;40;20180;-52
2021/05/11 03:06:45;;;;;;;9.00;5.25;;;;;;;15.08;86.98;99924.75;3562166;40;20068;-56
2021/05/11 03:09:13;;;;;;;7.63;4.97;;;;;;;14.96;88.20;99930.81;3563680;40;20055;-56
2021/05/11 03:11:40;;;;;;;5.03;4.35;;;;;;;14.84;88.76;99925.72;3564246;40;20401;-60
2021/05/11 03:14:06;;;;;;;5.15;4.50;;;;;;;14.79;89.49;99915.44;3566577;40;20065;-58
2021/05/11 03:16:35;;;;;;;6.43;4.72;;;;;;;14.74;90.27;99914.56;3564141;40;20435;-56
2021/05/11 03:19:03;;;;;;;9.48;5.35;;;;;;;14.79;90.10;99905.13;3562377;40;20514;-56
2021/05/11 03:21:30;;;;;;;5.88;4.75;;;;;;;14.71;89.92;99899.13;3564149;40;20287;-56
2021/05/11 03:23:56;;;;;;;7.18;5.63;;;;;;;14.58;90.72;99908.63;3564429;40;20049;-59
2021/05/11 03:26:23;;;;;;;8.48;5.60;;;;;;;14.64;91.32;99905.16;3564712;40;20078;-58
2021/05/11 03:28:49;;;;;;;6.70;4.63;;;;;;;14.80;90.25;99893.94;3560595;40;20056;-57
2021/05/11 03:31:16;;;;;;;7.43;4.78;;;;;;;15.01;88.81;99886.06;3564410;40;20057;-58
2021/05/11 03:33:42;;;;;;;5.07;4.50;;;;;;;14.71;89.76;99884.53;3563771;40;20402;-56
2021/05/11 03:36:09;;;;;;;6.13;5.22;;;;;;;14.89;89.52;99886.16;3564745;40;20096;-56
2021/05/11 03:38:36;;;;;;;7.45;4.82;;;;;;;14.67;90.73;99885.38;3563570;40;20045;-57
2021/05/11 03:41:03;;;;;;;7.72;4.97;;;;;;;14.96;89.33;99874.09;3564703;40;20064;-56
2021/05/11 03:43:47;;;;;;;6.50;5.50;;;;;;;15.15;88.07;99880.84;3564757;40;20340;-55
2021/05/11 03:46:12;;;;;;;8.45;5.13;;;;;;;15.28;87.54;99882.47;3565187;40;20138;-58
2021/05/11 03:48:39;;;;;;;8.10;5.47;;;;;;;15.19;88.02;99894.59;3563966;40;20049;-54
2021/05/11 03:51:06;;;;;;;6.32;5.47;;;;;;;15.20;88.41;99893.72;3564933;40;20308;-57
2021/05/11 03:53:33;;;;;;;10.00;5.43;;;;;;;14.99;88.50;99897.28;3563531;40;20069;-58
2021/05/11 03:56:01;;;;;;;5.85;4.88;;;;;;;14.99;88.88;99887.81;3564354;40;20045;-55
2021/05/11 03:58:28;;;;;;;6.32;5.32;;;;;;;14.97;88.66;99889.53;3563816;40;20470;-54
2021/05/11 04:00:59;;;;;;;6.97;5.47;;;;;;;15.22;87.83;99890.28;3563722;40;20075;-59
2021/05/11 04:03:40;;;;;;;8.27;5.82;;;;;;;15.06;89.03;99882.63;3564424;40;20065;-55
2021/05/11 04:06:10;;;;;;;7.45;5.60;;;;;;;15.06;88.06;99890.34;3553575;40;20049;-59
2021/05/11 04:08:45;;;;;;;7.63;5.10;;;;;;;15.16;88.96;99892.00;3562525;40;20045;-57
2021/05/11 04:14:15;;;;;;;6.18;5.30;;;;;;;15.19;88.14;99892.00;3563326;40;20073;-55
2021/05/11 04:16:43;;;;;;;6.25;5.65;;;;;;;15.33;87.83;99889.34;3563668;40;20045;-58
2021/05/11 04:19:11;;;;;;;7.15;5.95;;;;;;;15.19;87.83;99882.53;3564518;40;20041;-57
2021/05/11 04:21:38;;;;;;;9.15;5.53;;;;;;;15.54;86.61;99878.88;3563621;40;20076;-59
2021/05/11 04:24:06;;;;;;;7.93;5.53;;;;;;;14.87;88.92;99869.81;3564576;40;20054;-53
2021/05/11 04:26:33;;;;;;;6.78;5.53;;;;;;;14.69;90.47;99875.06;3564128;40;22592;-60
2021/05/11 04:29:01;;;;;;;8.57;5.35;;;;;;;14.92;89.64;99869.81;3562952;40;20411;-57
2021/05/11 04:31:29;;;;;;;9.02;5.82;;;;;;;14.81;90.16;99869.88;3563756;40;20555;-58
2021/05/11 04:33:57;;;;;;;9.93;5.95;;;;;;;14.73;90.82;99872.47;3563630;40;20130;-54
2021/05/11 04:36:24;;;;;;;8.60;5.82;;;;;;;15.18;88.14;99862.78;3564110;40;20056;-52
2021/05/11 04:38:54;;;;;;;7.60;6.07;;;;;;;15.43;88.40;99862.59;3564465;40;20060;-54
2021/05/11 04:41:23;;;;;;;6.30;5.43;;;;;;;15.62;86.61;99860.72;3562893;40;20468;-57
2021/05/11 04:43:51;;;;;;;7.85;6.22;;;;;;;15.58;86.24;99864.22;3563370;40;20456;-56
2021/05/11 04:48:50;;;;;;;7.75;5.95;;;;;;;15.57;86.54;99840.13;3563134;40;20049;-54
2021/05/11 04:51:19;;;;;;;7.30;5.10;;;;;;;15.49;86.62;99853.09;3563936;40;20061;-56
2021/05/11 04:53:47;;;;;;;10.73;5.93;;;;;;;15.37;87.25;99852.34;3563508;40;20038;-53
2021/05/11 04:56:16;;;;;;;8.13;6.10;;;;;;;15.51;85.95;99835.03;3564287;40;20401;-51
2021/05/11 04:58:44;;;;;;;8.13;5.95;;;;;;;15.64;86.27;99838.41;3563531;40;20054;-52
2021/05/11 05:01:11;;;;;;;7.38;5.93;;;;;;;15.86;84.98;99839.91;3565288;40;20057;-56
2021/05/11 05:03:41;;;;;;;7.65;5.50;;;;;;;15.92;84.11;99841.56;3564036;40;20053;-56
2021/05/11 05:06:10;;;;;;;9.32;6.22;;;;;;;15.89;85.19;99836.44;3564324;40;20061;-55
2021/05/11 05:08:38;;;;;;;10.27;5.82;;;;;;;15.81;84.91;99836.53;3563883;40;20419;-53
2021/05/11 05:11:06;;;;;;;11.45;5.90;;;;;;;16.23;83.20;99826.63;3565014;40;20050;-56
2021/05/11 05:13:33;;;;;;;6.93;5.70;;;;;;;16.33;82.79;99824.78;3563425;40;20096;-60
2021/05/11 05:16:01;;;;;;;6.00;5.45;;;;;;;16.28;82.33;99832.59;3562680;40;20049;-59
2021/05/11 05:18:29;;;;;;;8.15;5.63;;;;;;;16.50;81.65;99833.16;3563526;40;20080;-58
2021/05/11 05:20:57;;;;;;;10.05;6.13;;;;;;;16.09;83.40;99826.78;3564145;40;20413;-53
2021/05/11 05:23:35;;;;;;;7.80;5.65;;;;;;;16.31;82.88;99819.63;3564058;40;20065;-55
2021/05/11 05:26:06;;;;;;;9.25;5.25;;;;;;;16.19;83.20;99818.03;3562639;40;20361;-57
2021/05/11 05:28:38;;;;;;;9.85;5.97;;;;;;;16.55;81.86;99819.34;3562937;40;20113;-56
2021/05/11 05:31:07;;;;;;;8.70;5.15;;;;;;;16.53;82.05;99822.81;3560910;40;20049;-52
2021/05/11 05:33:39;;;;;;;7.45;5.32;;;;;;;16.90;80.92;99824.94;3563907;40;20362;-56
2021/05/11 05:36:11;;;;;;;7.30;5.38;;;;;;;16.77;81.59;99821.66;3560963;40;20419;-53
2021/05/11 05:38:41;;;;;;;8.27;5.10;;;;;;;17.04;79.26;99815.25;3563130;40;20071;-58
2021/05/11 05:41:11;;;;;;;8.13;5.28;;;;;;;16.99;80.35;99810.13;3564183;40;20057;-52
2021/05/11 05:43:39;;;;;;;7.18;5.15;;;;;;;17.21;80.30;99805.50;3563634;40;20418;-55
2021/05/11 05:46:07;;;;;;;7.68;5.35;;;;;;;17.38;78.47;99797.47;3564522;40;20419;-58
2021/05/11 05:48:34;;;;;;;7.03;4.82;;;;;;;17.52;78.90;99805.00;3563304;40;20080;-58
2021/05/11 05:51:04;;;;;;;5.75;5.15;;;;;;;17.79;76.62;99798.50;3564896;40;20362;-55
2021/05/11 05:53:36;;;;;;;9.52;4.85;;;;;;;18.19;75.89;99789.97;3563181;40;20072;-58
2021/05/11 05:56:06;;;;;;;11.35;5.28;;;;;;;18.86;73.44;99787.72;3560600;40;20081;-59
2021/05/11 05:58:34;;;;;;;6.68;4.60;;;;;;;19.25;71.31;99785.94;3563222;40;20041;-58
2021/05/11 06:01:08;;;;;;;7.47;4.75;;;;;;;19.44;71.38;99781.97;3564181;40;20044;-61
2021/05/11 06:06:11;;;;;;;8.20;5.15;;;;;;;19.46;67.86;99776.75;3562563;40;20279;-58
2021/05/11 06:08:41;;;;;;;7.57;5.28;;;;;;;19.84;67.53;99776.66;3562800;40;20369;-57
2021/05/11 06:11:28;;;;;;;9.98;5.35;;;;;;;20.32;65.14;99775.31;3564959;40;20052;-58
2021/05/11 06:19:21;;;;;;;9.27;4.68;;;;;;;21.05;63.38;99780.06;3561979;40;20411;-57
2021/05/11 06:21:57;;;;;;;6.18;5.22;;;;;;;21.26;60.17;99786.31;3562566;40;20057;-52
2021/05/11 06:24:29;;;;;;;6.10;5.40;;;;;;;21.54;60.82;99792.38;3560936;40;20147;-46
2021/05/11 06:26:57;;;;;;;8.10;4.75;;;;;;;21.52;60.17;99791.53;3563847;40;20083;-47
2021/05/11 06:29:43;;;;;;;7.93;5.07;;;;;;;21.31;60.27;99787.06;3564144;40;20050;-53
2021/05/11 06:32:11;;;;;;;7.18;5.10;;;;;;;21.76;58.97;99789.00;3564003;40;20053;-54
2021/05/11 06:34:52;;;;;;;5.93;4.80;;;;;;;22.20;58.17;99789.22;3567227;40;20065;-54
2021/05/11 06:37:28;;;;;;;9.85;4.68;;;;;;;22.15;58.78;99781.56;3566335;40;20047;-54
2021/05/11 06:40:02;;;;;;;6.68;4.65;;;;;;;22.22;55.53;99784.78;3565508;40;20045;-56
2021/05/11 06:42:41;;;;;;;8.93;4.75;;;;;;;22.34;56.06;99785.19;3566928;40;20327;-57
2021/05/11 06:48:28;;;;;;;8.95;4.85;;;;;;;22.77;54.94;99777.47;3541721;40;20463;-54
2021/05/11 06:53:52;;;;;;;6.22;4.47;;;;;;;22.83;55.33;99777.22;3567894;40;20064;-50
2021/05/11 06:56:22;;;;;;;6.35;4.70;;;;;;;23.15;54.36;99775.13;3568043;40;20108;-51
2021/05/11 06:58:50;;;;;;;7.95;4.85;;;;;;;23.30;53.58;99780.59;3558629;40;20059;-52
2021/05/11 07:01:21;;;;;;;8.65;4.55;;;;;;;23.50;53.08;99777.13;3568861;40;20052;-48
2021/05/11 07:03:49;;;;;;;6.45;4.97;;;;;;;23.77;51.80;99774.28;3568082;40;20135;-52
2021/05/11 07:06:18;;;;;;;8.18;4.53;;;;;;;23.84;51.39;99778.31;3567665;40;20049;-53
2021/05/11 07:08:53;;;;;;;11.50;4.85;;;;;;;24.29;50.08;99785.06;3568568;40;20069;-50
2021/05/11 07:14:46;;;;;;;12.02;5.18;;;;;;;24.86;49.08;99775.44;3561970;40;20064;-47
2021/05/11 07:17:23;;;;;;;7.18;4.60;;;;;;;25.51;47.77;99768.72;3562664;40;20493;-53
2021/05/11 07:19:57;;;;;;;7.25;4.70;;;;;;;25.75;45.91;99766.66;3561881;40;20050;-50
2021/05/11 07:22:40;;;;;;;8.90;4.90;;;;;;;25.67;47.17;99766.19;3562058;40;20057;-51
2021/05/11 07:25:31;;;;;;;9.75;5.20;;;;;;;26.08;45.54;99769.31;3561182;40;20061;-50
2021/05/11 07:31:00;;;;;;;12.75;4.95;;;;;;;26.01;44.64;99764.44;3563656;40;20053;-53
2021/05/11 07:33:44;;;;;;;7.70;5.03;;;;;;;25.85;44.91;99780.16;3561000;40;20107;-53
2021/05/11 07:36:15;;;;;;;8.33;4.70;;;;;;;26.36;43.98;99783.56;3560012;40;20052;-56
2021/05/11 07:38:45;;;;;;;6.35;4.60;;;;;;;26.41;43.61;99789.41;3564017;40;20049;-60
2021/05/11 07:41:15;;;;;;;8.57;5.13;;;;;;;26.45;43.69;99798.84;3564480;40;20053;-54
2021/05/11 07:44:06;;;;;;;9.18;4.55;;;;;;;26.10;43.66;99803.31;3563042;40;20334;-53
2021/05/11 08:10:15;;;;;;;6.82;4.30;;;;;;;26.55;42.30;99783.44;3532437;40;20141;-47
2021/05/11 08:15:53;;;;;;;6.88;3.95;;;;;;;26.58;42.85;99784.13;3561920;40;20442;-53
2021/05/11 08:18:30;;;;;;;6.22;4.07;;;;;;;26.33;43.12;99776.69;3564790;40;20041;-54
2021/05/11 08:29:23;;;;;;;9.55;4.15;;;;;;;28.50;38.72;99752.66;3563079;40;19941;-60
2021/05/11 08:31:52;;;;;;;7.25;4.22;;;;;;;28.37;37.65;99768.38;3564881;40;20089;-60
2021/05/11 08:34:20;;;;;;;8.07;3.85;;;;;;;29.14;35.43;99755.56;3563632;40;20081;-61
2021/05/11 08:36:51;;;;;;;4.78;4.22;;;;;;;29.46;35.54;99758.69;3557907;40;20046;-58
2021/05/11 08:39:26;;;;;;;5.45;3.97;;;;;;;29.44;35.97;99760.56;3568239;40;20057;-57
2021/05/11 08:41:55;;;;;;;6.57;3.63;;;;;;;29.54;35.83;99761.66;3565288;40;20360;-52
2021/05/11 08:44:26;;;;;;;8.82;3.58;;;;;;;29.20;35.92;99756.94;3563351;40;20518;-55
2021/05/11 08:46:58;;;;;;;6.88;3.88;;;;;;;29.30;37.12;99755.38;3564739;40;20062;-51
2021/05/11 08:49:30;;;;;;;9.75;3.85;;;;;;;28.48;36.26;99756.34;3563897;40;20045;-58
2021/05/11 09:09:04;;;;;;;6.40;3.97;;;;;;;29.07;36.38;99720.84;3563688;40;20054;-58
2021/05/11 09:25:41;;;;;;;7.03;3.95;;;;;;;29.47;35.27;99731.34;3563329;40;20057;-56
2021/05/11 09:28:37;;;;;;;7.68;3.90;;;;;;;29.15;35.66;99723.81;3564366;40;20041;-58
2021/05/11 09:31:40;;;;;;;7.03;3.67;;;;;;;29.19;35.87;99721.81;3564064;40;20049;-61
2021/05/11 09:34:17;;;;;;;4.88;3.85;;;;;;;29.16;35.93;99719.38;3562687;40;20433;-56
2021/05/11 09:45:54;;;;;;;5.32;3.55;;;;;;;28.72;36.93;99696.78;3564272;40;20049;-57
2021/05/11 09:52:02;;;;;;;7.07;3.75;;;;;;;29.41;34.76;99692.19;3542297;40;20407;-55
2021/05/11 09:59:57;;;;;;;4.63;3.45;;;;;;;32.18;30.69;99685.75;3564161;40;20394;-54
2021/05/11 10:48:43;;;;;;;5.20;3.42;;;;;;;38.17;22.13;99681.50;3565724;40;20069;-57
2021/05/11 10:51:22;;;;;;;4.82;3.67;;;;;;;39.27;20.16;99692.00;3565223;40;20053;-52
2021/05/11 10:53:57;;;;;;;6.18;3.83;;;;;;;39.46;19.97;99678.22;3564776;40;20053;-57
2021/05/11 11:04:44;;;;;;;5.32;3.60;;;;;;;38.78;20.82;99665.25;3567975;40;20058;-55
2021/05/11 11:07:14;;;;;;;3.78;3.28;;;;;;;40.41;19.16;99672.78;3566416;40;20049;-54
2021/05/11 11:09:57;;;;;;;5.90;3.97;;;;;;;40.85;20.11;99675.63;3567553;40;20131;-59
2021/05/11 11:12:34;;;;;;;4.57;4.00;;;;;;;40.58;19.56;99671.66;3567058;40;20057;-53
2021/05/11 11:15:05;;;;;;;8.77;3.53;;;;;;;39.76;20.19;99668.59;3567306;40;20085;-55
2021/05/11 11:17:40;;;;;;;5.78;3.70;;;;;;;39.90;19.83;99673.22;3566283;40;20029;-55
2021/05/11 11:20:11;;;;;;;6.53;4.07;;;;;;;39.55;19.70;99671.81;3567962;40;20445;-53
2021/05/11 11:25:41;;;;;;;5.28;3.65;;;;;;;41.40;18.00;99682.53;3567672;40;20048;-55
2021/05/11 11:28:09;;;;;;;6.60;3.97;;;;;;;40.45;18.83;99669.56;3566966;40;20379;-55
2021/05/11 11:30:37;;;;;;;5.30;3.90;;;;;;;41.27;17.93;99662.66;3563257;40;26320;-57
2021/05/11 11:33:13;;;;;;;7.68;3.90;;;;;;;43.59;16.25;99671.31;3563353;40;20044;-53
2021/05/11 11:35:42;;;;;;;6.72;4.43;;;;;;;40.61;18.40;99671.31;3565426;40;20052;-55
2021/05/11 11:38:10;;;;;;;7.30;3.95;;;;;;;42.46;18.29;99664.19;3569950;40;20060;-54
2021/05/11 11:40:38;;;;;;;6.95;3.88;;;;;;;42.68;17.40;99665.88;3567798;40;20060;-53
2021/05/11 11:43:10;;;;;;;4.88;3.80;;;;;;;41.43;18.45;99657.16;3568660;40;20131;-53
2021/05/11 11:45:39;;;;;;;6.95;3.83;;;;;;;40.82;18.92;99651.00;3568272;40;20064;-56
2021/05/11 11:48:06;;;;;;;6.45;3.80;;;;;;;40.31;19.11;99642.66;3568516;40;20438;-54
2021/05/11 11:50:37;;;;;;;6.40;3.75;;;;;;;38.87;21.37;99640.13;3569521;40;20330;-53
2021/05/11 11:53:22;;;;;;;6.15;3.70;;;;;;;39.10;20.43;99641.09;3566503;40;20041;-56
2021/05/11 11:58:37;;;;;;;;;;;;;;;39.58;20.38;99636.66;3568639;40;20060;-55
2021/05/11 12:01:16;;;;;;;9.35;4.35;;;;;;;40.89;20.35;99643.88;3569620;40;20022;-58
2021/05/11 12:03:47;;;;;;;6.45;4.30;;;;;;;40.91;18.63;99641.88;3567416;40;20065;-55
2021/05/11 12:06:25;;;;;;;9.23;3.83;;;;;;;40.43;19.66;99638.53;3565321;40;20139;-61
2021/05/11 12:08:53;;;;;;;5.28;3.45;;;;;;;39.88;20.12;99650.25;3564510;40;20056;-58
2021/05/11 12:11:21;;;;;;;6.00;3.92;;;;;;;39.26;20.81;99631.41;3565727;40;20037;-62
2021/05/11 12:13:52;;;;;;;5.97;4.00;;;;;;;40.84;18.86;99640.91;3563354;40;20428;-54
2021/05/11 12:16:27;;;;;;;6.22;3.75;;;;;;;42.12;17.55;99643.31;3564417;40;20056;-52
2021/05/11 12:19:06;;;;;;;5.50;3.65;;;;;;;42.40;17.32;99638.88;3563723;40;20057;-50
2021/05/11 12:22:00;;;;;;;4.55;3.63;;;;;;;43.19;17.31;99636.00;3563671;40;20064;-58
2021/05/11 12:24:30;;;;;;;5.07;3.72;;;;;;;40.48;18.96;99631.59;3562702;40;20065;-51
2021/05/11 12:27:24;;;;;;;5.53;4.05;;;;;;;43.16;17.36;99638.25;3563205;40;20072;-59
2021/05/11 12:30:00;;;;;;;6.30;4.05;;;;;;;44.14;16.31;99639.72;3563931;40;20113;-53
2021/05/11 12:32:32;;;;;;;8.45;4.88;;;;;;;43.03;16.88;99630.91;3563011;40;20053;-58
2021/05/11 12:35:13;;;;;;;4.18;3.70;;;;;;;42.16;17.88;99615.84;3564077;40;20320;-54
2021/05/11 12:37:52;;;;;;;6.45;3.70;;;;;;;45.07;15.95;99626.31;3563504;40;20049;-56
2021/05/11 12:40:25;;;;;;;5.25;3.55;;;;;;;40.58;19.93;99604.56;3562245;40;20045;-56
2021/05/11 12:42:56;;;;;;;7.60;3.83;;;;;;;42.77;17.25;99603.78;3564064;40;20048;-56
2021/05/11 12:45:25;;;;;;;5.22;4.40;;;;;;;39.62;20.05;99595.09;3563190;40;20069;-58
2021/05/11 12:48:03;;;;;;;4.72;3.55;;;;;;;42.07;17.39;99600.03;3563699;40;20061;-54
2021/05/11 12:50:38;;;;;;;8.95;4.15;;;;;;;42.40;18.16;99597.66;3563282;40;20064;-57
2021/05/11 12:53:34;;;;;;;5.90;4.30;;;;;;;43.36;17.18;99608.69;3562297;40;20303;-54
2021/05/11 12:58:54;;;;;;;7.90;4.03;;;;;;;43.11;16.98;99598.44;3563720;40;20093;-56
2021/05/11 13:01:46;;;;;;;7.88;4.68;;;;;;;45.85;14.52;99623.56;3562577;40;20057;-56
2021/05/11 13:13:42;;;;;;;5.85;3.85;;;;;;;43.04;17.80;99604.81;3562353;40;20459;-56
2021/05/11 13:15:31;;;;;;;8.05;4.47;;;;;;;43.49;16.32;99605.28;3560312;40;20324;-56
2021/05/11 13:26:26;;;;;;;5.60;3.80;;;;;;;44.56;17.42;99594.53;3561273;40;20589;-54
2021/05/11 13:29:01;;;;;;;6.00;3.80;;;;;;;42.50;19.06;99576.63;3563403;40;20391;-52
2021/05/11 13:31:34;;;;;;;5.22;3.65;;;;;;;44.37;16.35;99590.78;3563511;40;20656;-48
2021/05/11 13:34:12;;;;;;;8.40;4.18;;;;;;;41.89;19.68;99579.75;3562679;40;20041;-57
2021/05/11 13:36:41;;;;;;;6.97;3.72;;;;;;;41.27;19.89;99582.03;3562930;40;20045;-52
2021/05/11 13:39:11;;;;;;;4.82;3.67;;;;;;;44.83;16.46;99589.13;3564071;40;20120;-50
2021/05/11 13:41:41;;;;;;;5.50;3.58;;;;;;;42.91;17.79;99574.03;3563617;40;20069;-56
2021/05/11 13:44:09;;;;;;;6.75;4.10;;;;;;;41.12;20.77;99569.47;3564280;40;20081;-49
2021/05/11 13:46:36;;;;;;;8.93;4.47;;;;;;;39.14;22.04;99554.06;3563929;40;20107;-49
2021/05/11 13:49:03;;;;;;;6.50;4.25;;;;;;;41.52;20.20;99561.94;3564304;40;20048;-53
2021/05/11 13:51:31;;;;;;;7.38;3.88;;;;;;;44.08;18.69;99566.88;3563662;40;20446;-55
2021/05/11 13:54:04;;;;;;;4.72;4.13;;;;;;;41.46;20.37;99557.31;3563303;40;20065;-54
2021/05/11 13:57:21;;;;;;;5.18;3.85;;;;;;;40.78;21.09;99559.25;3563259;40;20049;-54
2021/05/11 14:02:42;;;;;;;6.53;4.13;;;;;;;39.35;23.33;99545.47;3564247;40;20144;-58
2021/05/11 14:05:10;;;;;;;6.68;3.63;;;;;;;39.19;19.87;99538.28;3563465;40;20072;-55
2021/05/11 14:07:38;;;;;;;5.22;3.92;;;;;;;40.28;21.75;99536.53;3563205;40;20052;-56
2021/05/11 14:10:06;;;;;;;10.23;4.32;;;;;;;37.96;23.70;99532.25;3563800;40;20135;-48
2021/05/11 14:12:46;;;;;;;7.32;4.00;;;;;;;39.15;20.05;99530.78;3563206;40;20411;-50
2021/05/11 14:15:21;;;;;;;7.63;3.92;;;;;;;36.48;22.42;99533.53;3563531;40;20438;-52
2021/05/11 14:17:51;;;;;;;6.57;3.65;;;;;;;37.41;21.39;99538.09;3563556;40;20407;-48
2021/05/11 14:20:19;;;;;;;8.77;3.28;;;;;;;36.01;23.42;99523.09;3558914;40;20057;-55
2021/05/11 14:22:46;;;;;;;7.70;3.58;;;;;;;37.49;21.99;99525.75;3563182;40;20058;-52
2021/05/11 14:25:14;;;;;;;7.32;3.50;;;;;;;37.98;21.11;99529.41;3564734;40;20131;-50
2021/05/11 14:27:41;;;;;;;6.45;3.67;;;;;;;38.78;20.38;99526.03;3568154;40;20053;-48
2021/05/11 14:30:09;;;;;;;8.10;3.30;;;;;;;36.73;21.75;99511.34;3569778;40;20061;-50
2021/05/11 14:32:37;;;;;;;5.53;3.38;;;;;;;37.90;21.30;99527.56;3569992;40;20674;-49
2021/05/11 14:35:04;;;;;;;8.80;4.20;;;;;;;37.12;25.13;99525.13;3566238;40;20344;-51
2021/05/11 14:37:32;;;;;;;7.72;4.05;;;;;;;37.94;23.78;99518.19;3567914;40;20137;-54
2021/05/11 14:39:59;;;;;;;4.20;3.72;;;;;;;39.20;23.99;99534.66;3566234;40;20045;-50
2021/05/11 14:42:26;;;;;;;6.95;4.00;;;;;;;39.29;22.33;99539.97;3563731;40;20112;-50
2021/05/11 14:44:54;;;;;;;9.90;4.28;;;;;;;39.26;21.15;99540.31;3562885;40;20128;-51
2021/05/11 14:47:21;;;;;;;7.60;3.05;;;;;;;38.44;21.25;99535.13;3561771;40;20434;-50
2021/05/11 14:49:48;;;;;;;6.70;4.00;;;;;;;38.62;23.43;99526.91;3563108;40;20057;-50
2021/05/11 14:52:16;;;;;;;6.43;3.92;;;;;;;39.43;23.57;99528.53;3563742;40;20049;-50
2021/05/11 14:54:43;;;;;;;8.50;3.90;;;;;;;39.19;23.33;99521.38;3562632;40;20053;-46
2021/05/11 14:57:10;;;;;;;7.28;5.03;;;;;;;37.13;24.71;99515.25;3563161;40;20057;-47
2021/05/11 14:59:37;;;;;;;5.15;4.65;;;;;;;36.79;24.80;99510.72;3562684;40;20074;-48
2021/05/11 15:02:06;;;;;;;8.10;4.32;;;;;;;38.19;25.05;99515.56;3563150;40;20081;-49
2021/05/11 15:04:33;;;;;;;6.70;4.10;;;;;;;39.28;23.10;99514.19;3562784;40;20037;-50
2021/05/11 15:07:00;;;;;;;6.00;4.90;;;;;;;38.63;23.31;99513.34;3564259;40;20323;-55
2021/05/11 15:09:28;;;;;;;8.75;4.97;;;;;;;38.86;23.95;99518.00;3565974;40;20054;-49
2021/05/11 15:11:55;;;;;;;6.82;4.70;;;;;;;38.39;23.68;99518.72;3564637;40;20304;-50
2021/05/11 15:14:22;;;;;;;9.23;4.93;;;;;;;38.08;24.75;99514.03;3565128;40;20049;-53
2021/05/11 15:16:57;;;;;;;6.43;4.68;;;;;;;38.57;23.81;99513.19;3564285;40;20049;-52
2021/05/11 15:19:24;;;;;;;7.63;4.93;;;;;;;36.99;26.55;99506.03;3564071;40;20057;-54
2021/05/11 15:21:51;;;;;;;5.28;4.78;;;;;;;35.77;27.99;99505.03;3565141;40;20042;-48
2021/05/11 15:24:18;;;;;;;6.63;4.40;;;;;;;35.18;28.97;99500.03;3565174;40;20052;-48
2021/05/11 15:26:46;;;;;;;7.93;5.10;;;;;;;34.94;29.04;99502.34;3564507;40;20127;-48
2021/05/11 15:29:13;;;;;;;7.68;4.80;;;;;;;34.22;29.06;99497.59;3564774;40;20775;-46
2021/05/11 15:31:40;;;;;;;6.45;5.15;;;;;;;33.15;31.69;99484.97;3564371;40;20050;-56
2021/05/11 15:34:07;;;;;;;7.47;4.80;;;;;;;32.99;32.18;99484.63;3564771;40;20049;-49
2021/05/11 15:36:55;;;;;;;9.90;5.40;;;;;;;32.86;32.92;99483.97;3564354;40;20150;-56
2021/05/11 15:39:22;;;;;;;11.70;5.00;;;;;;;32.55;32.98;99486.63;3563527;40;20068;-52
2021/05/11 15:41:51;;;;;;;8.90;5.00;;;;;;;32.98;32.58;99480.31;3564124;40;20046;-49
2021/05/11 15:44:21;;;;;;;7.78;4.97;;;;;;;32.60;33.36;99476.47;3562861;40;20061;-54
2021/05/11 15:46:48;;;;;;;6.80;4.85;;;;;;;32.53;33.34;99480.59;3564867;40;20058;-49
2021/05/11 15:49:16;;;;;;;6.97;5.00;;;;;;;32.01;34.65;99484.97;3565147;40;20074;-46
2021/05/11 15:51:43;;;;;;;7.80;5.10;;;;;;;31.67;34.49;99484.22;3552119;40;20063;-58
2021/05/11 15:54:10;;;;;;;11.00;6.45;;;;;;;31.50;35.40;99485.56;3565048;40;20121;-52
2021/05/11 15:56:37;;;;;;;6.28;5.25;;;;;;;31.13;36.77;99480.53;3564690;40;20034;-50